TAF and METAR

METAR for Tambacounda Airport

GOTT 030200Z 24006KT CAVOK 31/19 Q1011
Report created 3. jun 04:00
wind 6 knots from WSW (240°) Clear sky Temperature 31° with dewpoint at 19° (Humidity 48.96%) Pressure 1011 hPa
No TAF available for Tambacounda Airport